sensor_id;sensor_type;location;lat;lon;timestamp;temperature;humidity
7876;DHT22;69649;53.712;9.680;2023-05-20T00:01:59;10.10;59.00
7876;DHT22;69649;53.712;9.680;2023-05-20T00:04:25;10.00;59.30
7876;DHT22;69649;53.712;9.680;2023-05-20T00:06:51;10.00;59.40
7876;DHT22;69649;53.712;9.680;2023-05-20T00:09:17;9.80;59.80
7876;DHT22;69649;53.712;9.680;2023-05-20T00:11:43;9.80;60.10
7876;DHT22;69649;53.712;9.680;2023-05-20T00:14:08;9.80;60.20
7876;DHT22;69649;53.712;9.680;2023-05-20T00:16:34;9.70;60.00
7876;DHT22;69649;53.712;9.680;2023-05-20T00:19:01;9.70;60.10
7876;DHT22;69649;53.712;9.680;2023-05-20T00:21:26;9.70;60.60
7876;DHT22;69649;53.712;9.680;2023-05-20T00:23:52;9.60;60.60
7876;DHT22;69649;53.712;9.680;2023-05-20T00:26:18;9.70;60.70
7876;DHT22;69649;53.712;9.680;2023-05-20T00:28:44;9.60;60.80
7876;DHT22;69649;53.712;9.680;2023-05-20T00:31:10;9.60;61.00
7876;DHT22;69649;53.712;9.680;2023-05-20T00:33:36;9.60;61.40
7876;DHT22;69649;53.712;9.680;2023-05-20T00:36:02;9.60;61.40
7876;DHT22;69649;53.712;9.680;2023-05-20T00:38:28;9.60;61.50
7876;DHT22;69649;53.712;9.680;2023-05-20T00:40:54;9.60;61.60
7876;DHT22;69649;53.712;9.680;2023-05-20T00:43:20;9.50;61.50
7876;DHT22;69649;53.712;9.680;2023-05-20T00:45:47;9.60;61.80
7876;DHT22;69649;53.712;9.680;2023-05-20T00:48:13;9.50;62.30
7876;DHT22;69649;53.712;9.680;2023-05-20T00:50:39;9.50;62.00
7876;DHT22;69649;53.712;9.680;2023-05-20T00:53:05;9.50;62.30
7876;DHT22;69649;53.712;9.680;2023-05-20T00:55:31;9.50;62.20
7876;DHT22;69649;53.712;9.680;2023-05-20T00:57:57;9.50;62.30
7876;DHT22;69649;53.712;9.680;2023-05-20T01:00:23;9.40;62.80
7876;DHT22;69649;53.712;9.680;2023-05-20T01:02:49;9.40;63.20
7876;DHT22;69649;53.712;9.680;2023-05-20T01:05:14;9.40;63.30
7876;DHT22;69649;53.712;9.680;2023-05-20T01:07:40;9.30;63.60
7876;DHT22;69649;53.712;9.680;2023-05-20T01:10:08;9.20;63.90
7876;DHT22;69649;53.712;9.680;2023-05-20T01:12:36;9.20;64.10
7876;DHT22;69649;53.712;9.680;2023-05-20T01:15:09;9.10;64.50
7876;DHT22;69649;53.712;9.680;2023-05-20T01:17:42;9.10;64.90
7876;DHT22;69649;53.712;9.680;2023-05-20T01:20:07;9.10;64.50
7876;DHT22;69649;53.712;9.680;2023-05-20T01:22:38;9.10;65.00
7876;DHT22;69649;53.712;9.680;2023-05-20T01:25:04;9.00;65.00
7876;DHT22;69649;53.712;9.680;2023-05-20T01:27:30;9.00;65.20
7876;DHT22;69649;53.712;9.680;2023-05-20T01:29:56;9.00;65.10
7876;DHT22;69649;53.712;9.680;2023-05-20T01:33:10;9.00;65.20
7876;DHT22;69649;53.712;9.680;2023-05-20T01:34:52;9.00;65.60
7876;DHT22;69649;53.712;9.680;2023-05-20T01:37:19;9.00;65.40
7876;DHT22;69649;53.712;9.680;2023-05-20T01:39:46;9.00;65.30
7876;DHT22;69649;53.712;9.680;2023-05-20T01:42:14;9.00;65.50
7876;DHT22;69649;53.712;9.680;2023-05-20T01:44:40;9.00;65.20
7876;DHT22;69649;53.712;9.680;2023-05-20T01:47:06;9.00;65.10
7876;DHT22;69649;53.712;9.680;2023-05-20T01:49:32;9.00;65.10
7876;DHT22;69649;53.712;9.680;2023-05-20T01:51:58;9.10;64.80
7876;DHT22;69649;53.712;9.680;2023-05-20T01:54:24;9.00;65.00
7876;DHT22;69649;53.712;9.680;2023-05-20T01:56:50;9.00;65.20
7876;DHT22;69649;53.712;9.680;2023-05-20T01:59:15;9.00;65.40
7876;DHT22;69649;53.712;9.680;2023-05-20T02:01:41;8.90;65.50
7876;DHT22;69649;53.712;9.680;2023-05-20T02:04:07;8.80;65.60
7876;DHT22;69649;53.712;9.680;2023-05-20T02:06:33;8.80;65.70
7876;DHT22;69649;53.712;9.680;2023-05-20T02:08:59;8.80;65.50
7876;DHT22;69649;53.712;9.680;2023-05-20T02:11:25;8.80;65.50
7876;DHT22;69649;53.712;9.680;2023-05-20T02:13:51;8.80;65.70
7876;DHT22;69649;53.712;9.680;2023-05-20T02:16:17;8.80;65.70
7876;DHT22;69649;53.712;9.680;2023-05-20T02:18:43;8.70;65.70
7876;DHT22;69649;53.712;9.680;2023-05-20T02:21:09;8.80;65.70
7876;DHT22;69649;53.712;9.680;2023-05-20T02:23:34;8.70;65.80
7876;DHT22;69649;53.712;9.680;2023-05-20T02:26:00;8.80;65.80
7876;DHT22;69649;53.712;9.680;2023-05-20T02:28:26;8.80;65.60
7876;DHT22;69649;53.712;9.680;2023-05-20T02:30:52;8.70;65.70
7876;DHT22;69649;53.712;9.680;2023-05-20T02:33:18;8.80;65.60
7876;DHT22;69649;53.712;9.680;2023-05-20T02:35:44;8.80;65.40
7876;DHT22;69649;53.712;9.680;2023-05-20T02:38:11;8.90;65.40
7876;DHT22;69649;53.712;9.680;2023-05-20T02:40:37;8.80;65.50
7876;DHT22;69649;53.712;9.680;2023-05-20T02:43:03;8.80;65.50
7876;DHT22;69649;53.712;9.680;2023-05-20T02:45:29;8.80;65.70
7876;DHT22;69649;53.712;9.680;2023-05-20T02:47:55;8.80;65.60
7876;DHT22;69649;53.712;9.680;2023-05-20T02:50:21;8.70;65.90
7876;DHT22;69649;53.712;9.680;2023-05-20T02:52:47;8.60;66.10
7876;DHT22;69649;53.712;9.680;2023-05-20T02:55:14;8.70;65.90
7876;DHT22;69649;53.712;9.680;2023-05-20T02:57:40;8.80;65.70
7876;DHT22;69649;53.712;9.680;2023-05-20T03:02:56;8.80;65.60
7876;DHT22;69649;53.712;9.680;2023-05-20T03:05:22;8.70;65.90
7876;DHT22;69649;53.712;9.680;2023-05-20T03:07:47;8.60;66.00
7876;DHT22;69649;53.712;9.680;2023-05-20T03:10:13;8.60;66.00
7876;DHT22;69649;53.712;9.680;2023-05-20T03:12:39;8.60;66.10
7876;DHT22;69649;53.712;9.680;2023-05-20T03:15:06;8.60;66.10
7876;DHT22;69649;53.712;9.680;2023-05-20T03:17:33;8.60;66.40
7876;DHT22;69649;53.712;9.680;2023-05-20T03:20:00;8.60;66.50
7876;DHT22;69649;53.712;9.680;2023-05-20T03:22:26;8.60;66.50
7876;DHT22;69649;53.712;9.680;2023-05-20T03:24:52;8.60;66.50
7876;DHT22;69649;53.712;9.680;2023-05-20T03:27:17;8.50;66.60
7876;DHT22;69649;53.712;9.680;2023-05-20T03:29:43;8.50;66.70
7876;DHT22;69649;53.712;9.680;2023-05-20T03:32:09;8.50;66.80
7876;DHT22;69649;53.712;9.680;2023-05-20T03:34:35;8.50;66.90
7876;DHT22;69649;53.712;9.680;2023-05-20T03:37:01;8.50;66.90
7876;DHT22;69649;53.712;9.680;2023-05-20T03:39:27;8.60;66.80
7876;DHT22;69649;53.712;9.680;2023-05-20T03:41:52;8.60;66.80
7876;DHT22;69649;53.712;9.680;2023-05-20T03:44:19;8.60;66.90
7876;DHT22;69649;53.712;9.680;2023-05-20T03:46:44;8.60;66.90
7876;DHT22;69649;53.712;9.680;2023-05-20T03:49:10;8.60;66.90
7876;DHT22;69649;53.712;9.680;2023-05-20T03:51:36;8.60;67.10
7876;DHT22;69649;53.712;9.680;2023-05-20T03:54:02;8.60;67.30
7876;DHT22;69649;53.712;9.680;2023-05-20T03:56:28;8.60;67.10
7876;DHT22;69649;53.712;9.680;2023-05-20T03:58:53;8.60;67.30
7876;DHT22;69649;53.712;9.680;2023-05-20T04:01:19;8.60;67.50
7876;DHT22;69649;53.712;9.680;2023-05-20T04:03:46;8.60;67.40
7876;DHT22;69649;53.712;9.680;2023-05-20T04:06:12;8.60;67.60
7876;DHT22;69649;53.712;9.680;2023-05-20T04:08:38;8.60;67.80
7876;DHT22;69649;53.712;9.680;2023-05-20T04:11:04;8.60;67.60
7876;DHT22;69649;53.712;9.680;2023-05-20T04:13:30;8.60;67.80
7876;DHT22;69649;53.712;9.680;2023-05-20T04:15:56;8.70;68.00
7876;DHT22;69649;53.712;9.680;2023-05-20T04:18:22;8.80;67.90
7876;DHT22;69649;53.712;9.680;2023-05-20T04:20:47;8.80;68.00
7876;DHT22;69649;53.712;9.680;2023-05-20T04:23:14;8.90;68.20
7876;DHT22;69649;53.712;9.680;2023-05-20T04:25:40;9.00;68.10
7876;DHT22;69649;53.712;9.680;2023-05-20T04:28:06;9.10;67.90
7876;DHT22;69649;53.712;9.680;2023-05-20T04:30:34;9.20;67.90
7876;DHT22;69649;53.712;9.680;2023-05-20T04:33:00;9.20;68.20
7876;DHT22;69649;53.712;9.680;2023-05-20T04:35:27;9.40;68.00
7876;DHT22;69649;53.712;9.680;2023-05-20T04:37:54;9.40;68.00
7876;DHT22;69649;53.712;9.680;2023-05-20T04:40:20;9.50;68.00
7876;DHT22;69649;53.712;9.680;2023-05-20T04:42:47;9.60;67.90
7876;DHT22;69649;53.712;9.680;2023-05-20T04:45:13;9.70;67.70
7876;DHT22;69649;53.712;9.680;2023-05-20T04:47:39;9.80;67.60
7876;DHT22;69649;53.712;9.680;2023-05-20T04:50:07;9.80;67.50
7876;DHT22;69649;53.712;9.680;2023-05-20T04:52:37;10.00;67.50
7876;DHT22;69649;53.712;9.680;2023-05-20T04:55:11;10.00;67.40
7876;DHT22;69649;53.712;9.680;2023-05-20T04:57:38;10.00;67.60
7876;DHT22;69649;53.712;9.680;2023-05-20T05:00:07;10.20;67.10
7876;DHT22;69649;53.712;9.680;2023-05-20T05:02:34;10.30;67.20
7876;DHT22;69649;53.712;9.680;2023-05-20T05:05:00;10.40;66.60
7876;DHT22;69649;53.712;9.680;2023-05-20T05:07:26;10.50;66.40
7876;DHT22;69649;53.712;9.680;2023-05-20T05:09:51;10.50;66.90
7876;DHT22;69649;53.712;9.680;2023-05-20T05:12:17;10.60;66.60
7876;DHT22;69649;53.712;9.680;2023-05-20T05:14:43;10.60;66.80
7876;DHT22;69649;53.712;9.680;2023-05-20T05:17:09;10.70;66.70
7876;DHT22;69649;53.712;9.680;2023-05-20T05:19:35;10.80;66.70
7876;DHT22;69649;53.712;9.680;2023-05-20T05:22:01;10.80;66.60
7876;DHT22;69649;53.712;9.680;2023-05-20T05:24:26;10.80;66.70
7876;DHT22;69649;53.712;9.680;2023-05-20T05:26:53;10.90;66.80
7876;DHT22;69649;53.712;9.680;2023-05-20T05:29:19;11.00;66.60
7876;DHT22;69649;53.712;9.680;2023-05-20T05:31:45;11.00;66.30
7876;DHT22;69649;53.712;9.680;2023-05-20T05:34:11;11.10;66.20
7876;DHT22;69649;53.712;9.680;2023-05-20T05:36:38;11.30;66.00
7876;DHT22;69649;53.712;9.680;2023-05-20T05:39:05;11.40;66.10
7876;DHT22;69649;53.712;9.680;2023-05-20T05:41:31;11.40;66.10
7876;DHT22;69649;53.712;9.680;2023-05-20T05:43:57;11.50;65.60
7876;DHT22;69649;53.712;9.680;2023-05-20T05:46:24;11.60;66.10
7876;DHT22;69649;53.712;9.680;2023-05-20T05:48:50;12.10;65.60
7876;DHT22;69649;53.712;9.680;2023-05-20T05:51:16;12.00;65.40
7876;DHT22;69649;53.712;9.680;2023-05-20T05:53:42;12.00;65.40
7876;DHT22;69649;53.712;9.680;2023-05-20T05:56:08;12.10;65.10
7876;DHT22;69649;53.712;9.680;2023-05-20T05:58:34;12.10;65.00
7876;DHT22;69649;53.712;9.680;2023-05-20T06:01:00;12.30;65.00
7876;DHT22;69649;53.712;9.680;2023-05-20T06:03:26;12.40;65.10
7876;DHT22;69649;53.712;9.680;2023-05-20T06:05:52;12.50;64.60
7876;DHT22;69649;53.712;9.680;2023-05-20T06:08:17;12.50;65.00
7876;DHT22;69649;53.712;9.680;2023-05-20T06:10:48;12.90;64.90
7876;DHT22;69649;53.712;9.680;2023-05-20T06:13:15;13.00;64.00
7876;DHT22;69649;53.712;9.680;2023-05-20T06:15:40;13.00;64.20
7876;DHT22;69649;53.712;9.680;2023-05-20T06:18:06;13.10;63.70
7876;DHT22;69649;53.712;9.680;2023-05-20T06:20:32;13.10;63.80
7876;DHT22;69649;53.712;9.680;2023-05-20T06:22:58;13.20;63.70
7876;DHT22;69649;53.712;9.680;2023-05-20T06:25:24;13.30;63.20
7876;DHT22;69649;53.712;9.680;2023-05-20T06:27:50;13.50;62.80
7876;DHT22;69649;53.712;9.680;2023-05-20T06:30:16;13.60;62.80
7876;DHT22;69649;53.712;9.680;2023-05-20T06:32:42;13.70;62.40
7876;DHT22;69649;53.712;9.680;2023-05-20T06:35:08;13.90;62.50
7876;DHT22;69649;53.712;9.680;2023-05-20T06:37:34;13.90;62.60
7876;DHT22;69649;53.712;9.680;2023-05-20T06:40:00;14.10;62.50
7876;DHT22;69649;53.712;9.680;2023-05-20T06:42:26;14.10;62.10
7876;DHT22;69649;53.712;9.680;2023-05-20T06:44:52;14.30;62.30
7876;DHT22;69649;53.712;9.680;2023-05-20T06:47:18;14.30;61.70
7876;DHT22;69649;53.712;9.680;2023-05-20T06:49:44;14.30;61.60
7876;DHT22;69649;53.712;9.680;2023-05-20T06:52:10;14.20;61.20
7876;DHT22;69649;53.712;9.680;2023-05-20T06:54:39;14.30;61.60
7876;DHT22;69649;53.712;9.680;2023-05-20T06:57:07;14.40;61.90
7876;DHT22;69649;53.712;9.680;2023-05-20T06:59:33;14.50;61.40
7876;DHT22;69649;53.712;9.680;2023-05-20T07:02:00;14.60;61.60
7876;DHT22;69649;53.712;9.680;2023-05-20T07:04:26;14.80;61.60
7876;DHT22;69649;53.712;9.680;2023-05-20T07:06:52;15.00;60.60
7876;DHT22;69649;53.712;9.680;2023-05-20T07:09:18;15.10;60.30
7876;DHT22;69649;53.712;9.680;2023-05-20T07:11:43;15.20;60.50
7876;DHT22;69649;53.712;9.680;2023-05-20T07:14:09;15.20;60.50
7876;DHT22;69649;53.712;9.680;2023-05-20T07:16:36;15.20;61.00
7876;DHT22;69649;53.712;9.680;2023-05-20T07:19:02;15.30;62.60
7876;DHT22;69649;53.712;9.680;2023-05-20T07:21:28;15.70;59.50
7876;DHT22;69649;53.712;9.680;2023-05-20T07:23:54;15.80;59.80
7876;DHT22;69649;53.712;9.680;2023-05-20T07:26:20;15.60;59.40
7876;DHT22;69649;53.712;9.680;2023-05-20T07:28:46;15.60;59.70
7876;DHT22;69649;53.712;9.680;2023-05-20T07:31:12;15.80;59.50
7876;DHT22;69649;53.712;9.680;2023-05-20T07:33:38;15.90;59.90
7876;DHT22;69649;53.712;9.680;2023-05-20T07:36:05;16.10;59.30
7876;DHT22;69649;53.712;9.680;2023-05-20T07:38:30;16.20;59.30
7876;DHT22;69649;53.712;9.680;2023-05-20T07:40:57;16.30;58.30
7876;DHT22;69649;53.712;9.680;2023-05-20T07:43:22;16.40;58.50
7876;DHT22;69649;53.712;9.680;2023-05-20T07:45:48;16.40;58.00
7876;DHT22;69649;53.712;9.680;2023-05-20T07:48:15;16.40;58.00
7876;DHT22;69649;53.712;9.680;2023-05-20T07:50:41;16.60;57.20
7876;DHT22;69649;53.712;9.680;2023-05-20T07:53:06;16.70;56.70
7876;DHT22;69649;53.712;9.680;2023-05-20T07:55:33;16.90;58.10
7876;DHT22;69649;53.712;9.680;2023-05-20T07:58:00;17.00;57.50
7876;DHT22;69649;53.712;9.680;2023-05-20T08:00:26;17.00;57.60
7876;DHT22;69649;53.712;9.680;2023-05-20T08:02:52;17.10;57.30
7876;DHT22;69649;53.712;9.680;2023-05-20T08:05:17;17.20;56.50
7876;DHT22;69649;53.712;9.680;2023-05-20T08:07:44;17.20;56.50
7876;DHT22;69649;53.712;9.680;2023-05-20T08:10:10;17.50;55.10
7876;DHT22;69649;53.712;9.680;2023-05-20T08:12:36;17.50;55.90
7876;DHT22;69649;53.712;9.680;2023-05-20T08:15:03;17.30;55.90
7876;DHT22;69649;53.712;9.680;2023-05-20T08:17:29;17.50;56.20
7876;DHT22;69649;53.712;9.680;2023-05-20T08:19:54;17.60;55.50
7876;DHT22;69649;53.712;9.680;2023-05-20T08:22:20;17.80;55.80
7876;DHT22;69649;53.712;9.680;2023-05-20T08:24:46;17.80;55.60
7876;DHT22;69649;53.712;9.680;2023-05-20T08:27:12;18.10;55.70
7876;DHT22;69649;53.712;9.680;2023-05-20T08:29:37;18.20;54.80
7876;DHT22;69649;53.712;9.680;2023-05-20T08:32:04;17.70;55.70
7876;DHT22;69649;53.712;9.680;2023-05-20T08:34:30;17.50;55.10
7876;DHT22;69649;53.712;9.680;2023-05-20T08:36:55;17.50;55.90
7876;DHT22;69649;53.712;9.680;2023-05-20T08:39:22;17.50;54.80
7876;DHT22;69649;53.712;9.680;2023-05-20T08:41:48;17.50;54.30
7876;DHT22;69649;53.712;9.680;2023-05-20T08:44:15;17.60;53.80
7876;DHT22;69649;53.712;9.680;2023-05-20T08:46:43;17.50;55.00
7876;DHT22;69649;53.712;9.680;2023-05-20T08:49:09;17.80;55.90
7876;DHT22;69649;53.712;9.680;2023-05-20T08:51:36;17.70;55.90
7876;DHT22;69649;53.712;9.680;2023-05-20T08:54:02;17.50;55.50
7876;DHT22;69649;53.712;9.680;2023-05-20T08:56:28;17.50;56.10
7876;DHT22;69649;53.712;9.680;2023-05-20T08:58:54;17.80;55.70
7876;DHT22;69649;53.712;9.680;2023-05-20T09:01:23;17.80;55.30
7876;DHT22;69649;53.712;9.680;2023-05-20T09:03:50;17.90;55.00
7876;DHT22;69649;53.712;9.680;2023-05-20T09:06:16;18.20;55.80
7876;DHT22;69649;53.712;9.680;2023-05-20T09:08:44;18.50;54.40
7876;DHT22;69649;53.712;9.680;2023-05-20T09:11:11;18.70;53.20
7876;DHT22;69649;53.712;9.680;2023-05-20T09:13:37;18.60;53.80
7876;DHT22;69649;53.712;9.680;2023-05-20T09:16:04;18.60;54.00
7876;DHT22;69649;53.712;9.680;2023-05-20T09:18:30;18.70;54.00
7876;DHT22;69649;53.712;9.680;2023-05-20T09:20:56;18.80;53.90
7876;DHT22;69649;53.712;9.680;2023-05-20T09:23:22;18.70;52.70
7876;DHT22;69649;53.712;9.680;2023-05-20T09:25:50;18.80;52.20
7876;DHT22;69649;53.712;9.680;2023-05-20T09:28:22;18.80;51.70
7876;DHT22;69649;53.712;9.680;2023-05-20T09:30:59;18.80;52.60
7876;DHT22;69649;53.712;9.680;2023-05-20T09:33:30;18.40;52.30
7876;DHT22;69649;53.712;9.680;2023-05-20T09:36:06;18.50;52.90
7876;DHT22;69649;53.712;9.680;2023-05-20T09:38:30;18.40;52.50
7876;DHT22;69649;53.712;9.680;2023-05-20T09:41:01;18.20;52.10
7876;DHT22;69649;53.712;9.680;2023-05-20T09:43:27;18.20;52.70
7876;DHT22;69649;53.712;9.680;2023-05-20T09:45:53;18.00;52.70
7876;DHT22;69649;53.712;9.680;2023-05-20T09:48:20;17.90;53.30
7876;DHT22;69649;53.712;9.680;2023-05-20T09:50:47;17.80;53.30
7876;DHT22;69649;53.712;9.680;2023-05-20T09:53:15;17.70;53.30
7876;DHT22;69649;53.712;9.680;2023-05-20T09:55:41;17.50;53.20
7876;DHT22;69649;53.712;9.680;2023-05-20T09:58:08;17.40;53.00
7876;DHT22;69649;53.712;9.680;2023-05-20T10:00:36;17.50;53.50
7876;DHT22;69649;53.712;9.680;2023-05-20T10:03:02;17.70;52.10
7876;DHT22;69649;53.712;9.680;2023-05-20T10:05:36;17.80;52.30
7876;DHT22;69649;53.712;9.680;2023-05-20T10:08:28;17.80;52.70
7876;DHT22;69649;53.712;9.680;2023-05-20T10:16:20;18.10;52.00
7876;DHT22;69649;53.712;9.680;2023-05-20T10:21:23;18.00;51.30
7876;DHT22;69649;53.712;9.680;2023-05-20T10:23:50;18.00;51.70
7876;DHT22;69649;53.712;9.680;2023-05-20T10:26:17;17.80;50.60
7876;DHT22;69649;53.712;9.680;2023-05-20T10:28:43;17.70;52.00
7876;DHT22;69649;53.712;9.680;2023-05-20T10:31:22;17.60;52.30
7876;DHT22;69649;53.712;9.680;2023-05-20T10:33:51;17.60;52.10
7876;DHT22;69649;53.712;9.680;2023-05-20T10:36:28;17.60;52.10
7876;DHT22;69649;53.712;9.680;2023-05-20T10:38:57;17.60;52.40
7876;DHT22;69649;53.712;9.680;2023-05-20T10:41:24;17.80;51.30
7876;DHT22;69649;53.712;9.680;2023-05-20T10:44:02;17.60;51.70
7876;DHT22;69649;53.712;9.680;2023-05-20T10:46:29;17.90;51.60
7876;DHT22;69649;53.712;9.680;2023-05-20T10:48:55;18.00;51.70
7876;DHT22;69649;53.712;9.680;2023-05-20T10:51:23;18.10;50.90
7876;DHT22;69649;53.712;9.680;2023-05-20T10:53:52;18.00;51.40
7876;DHT22;69649;53.712;9.680;2023-05-20T10:56:21;17.80;51.00
7876;DHT22;69649;53.712;9.680;2023-05-20T10:58:48;17.70;51.90
7876;DHT22;69649;53.712;9.680;2023-05-20T11:01:15;17.50;52.20
7876;DHT22;69649;53.712;9.680;2023-05-20T11:03:48;17.30;52.40
7876;DHT22;69649;53.712;9.680;2023-05-20T11:06:15;17.20;52.90
7876;DHT22;69649;53.712;9.680;2023-05-20T11:08:42;17.20;53.40
7876;DHT22;69649;53.712;9.680;2023-05-20T11:11:09;17.00;53.00
7876;DHT22;69649;53.712;9.680;2023-05-20T11:13:35;17.00;53.80
7876;DHT22;69649;53.712;9.680;2023-05-20T11:16:02;17.10;53.60
7876;DHT22;69649;53.712;9.680;2023-05-20T11:18:29;17.10;53.90
7876;DHT22;69649;53.712;9.680;2023-05-20T11:20:57;17.00;53.80
7876;DHT22;69649;53.712;9.680;2023-05-20T11:23:24;17.10;53.50
7876;DHT22;69649;53.712;9.680;2023-05-20T11:25:51;17.20;53.70
7876;DHT22;69649;53.712;9.680;2023-05-20T11:28:19;17.40;53.40
7876;DHT22;69649;53.712;9.680;2023-05-20T11:30:46;17.40;52.80
7876;DHT22;69649;53.712;9.680;2023-05-20T11:33:14;17.30;54.00
7876;DHT22;69649;53.712;9.680;2023-05-20T11:35:48;17.50;53.10
7876;DHT22;69649;53.712;9.680;2023-05-20T11:38:15;17.50;54.00
7876;DHT22;69649;53.712;9.680;2023-05-20T11:40:55;17.80;53.80
7876;DHT22;69649;53.712;9.680;2023-05-20T11:43:13;18.00;53.10
7876;DHT22;69649;53.712;9.680;2023-05-20T11:45:41;18.30;52.90
7876;DHT22;69649;53.712;9.680;2023-05-20T11:48:07;18.50;52.70
7876;DHT22;69649;53.712;9.680;2023-05-20T11:50:38;18.60;51.60
7876;DHT22;69649;53.712;9.680;2023-05-20T11:53:09;18.30;52.10
7876;DHT22;69649;53.712;9.680;2023-05-20T11:55:33;18.20;52.20
7876;DHT22;69649;53.712;9.680;2023-05-20T11:58:00;17.90;52.60
7876;DHT22;69649;53.712;9.680;2023-05-20T12:00:26;17.80;52.80
7876;DHT22;69649;53.712;9.680;2023-05-20T12:02:52;17.70;52.60
7876;DHT22;69649;53.712;9.680;2023-05-20T12:05:18;17.70;53.10
7876;DHT22;69649;53.712;9.680;2023-05-20T12:07:44;17.60;52.60
7876;DHT22;69649;53.712;9.680;2023-05-20T12:10:11;17.60;53.00
7876;DHT22;69649;53.712;9.680;2023-05-20T12:12:38;17.60;52.70
7876;DHT22;69649;53.712;9.680;2023-05-20T12:15:05;17.40;53.30
7876;DHT22;69649;53.712;9.680;2023-05-20T12:17:47;17.40;53.40
7876;DHT22;69649;53.712;9.680;2023-05-20T12:20:12;17.50;53.40
7876;DHT22;69649;53.712;9.680;2023-05-20T12:22:39;17.50;53.90
7876;DHT22;69649;53.712;9.680;2023-05-20T12:25:05;17.40;53.00
7876;DHT22;69649;53.712;9.680;2023-05-20T12:27:31;17.40;53.70
7876;DHT22;69649;53.712;9.680;2023-05-20T12:29:59;17.40;53.60
7876;DHT22;69649;53.712;9.680;2023-05-20T12:32:24;17.50;53.70
7876;DHT22;69649;53.712;9.680;2023-05-20T12:34:50;17.20;53.40
7876;DHT22;69649;53.712;9.680;2023-05-20T12:37:16;17.20;54.00
7876;DHT22;69649;53.712;9.680;2023-05-20T12:39:42;17.20;53.70
7876;DHT22;69649;53.712;9.680;2023-05-20T12:42:07;17.10;54.40
7876;DHT22;69649;53.712;9.680;2023-05-20T12:44:33;17.10;54.40
7876;DHT22;69649;53.712;9.680;2023-05-20T12:47:00;17.10;54.00
7876;DHT22;69649;53.712;9.680;2023-05-20T12:49:26;17.00;54.30
7876;DHT22;69649;53.712;9.680;2023-05-20T12:51:51;17.00;54.70
7876;DHT22;69649;53.712;9.680;2023-05-20T12:54:18;17.00;55.10
7876;DHT22;69649;53.712;9.680;2023-05-20T12:56:45;17.00;55.10
7876;DHT22;69649;53.712;9.680;2023-05-20T12:59:14;17.10;56.20
7876;DHT22;69649;53.712;9.680;2023-05-20T13:01:39;17.20;55.00
7876;DHT22;69649;53.712;9.680;2023-05-20T13:04:05;17.20;54.60
7876;DHT22;69649;53.712;9.680;2023-05-20T13:06:33;17.20;54.20
7876;DHT22;69649;53.712;9.680;2023-05-20T13:08:59;17.20;54.20
7876;DHT22;69649;53.712;9.680;2023-05-20T13:11:24;17.20;54.30
7876;DHT22;69649;53.712;9.680;2023-05-20T13:13:50;17.00;55.00
7876;DHT22;69649;53.712;9.680;2023-05-20T13:16:16;17.00;55.10
7876;DHT22;69649;53.712;9.680;2023-05-20T13:18:43;16.80;55.10
7876;DHT22;69649;53.712;9.680;2023-05-20T13:21:09;16.80;55.70
7876;DHT22;69649;53.712;9.680;2023-05-20T13:23:34;17.00;56.00
7876;DHT22;69649;53.712;9.680;2023-05-20T13:26:01;17.10;55.40
7876;DHT22;69649;53.712;9.680;2023-05-20T13:28:27;17.20;55.40
7876;DHT22;69649;53.712;9.680;2023-05-20T13:30:53;17.30;56.80
7876;DHT22;69649;53.712;9.680;2023-05-20T13:33:19;17.80;54.70
7876;DHT22;69649;53.712;9.680;2023-05-20T13:35:45;18.00;53.70
7876;DHT22;69649;53.712;9.680;2023-05-20T13:38:11;18.00;53.90
7876;DHT22;69649;53.712;9.680;2023-05-20T13:40:37;17.80;54.40
7876;DHT22;69649;53.712;9.680;2023-05-20T13:43:02;17.70;54.10
7876;DHT22;69649;53.712;9.680;2023-05-20T13:45:28;17.80;54.60
7876;DHT22;69649;53.712;9.680;2023-05-20T13:47:54;17.80;54.80
7876;DHT22;69649;53.712;9.680;2023-05-20T13:50:20;17.70;55.30
7876;DHT22;69649;53.712;9.680;2023-05-20T13:52:45;17.60;55.20
7876;DHT22;69649;53.712;9.680;2023-05-20T13:55:11;17.50;55.40
7876;DHT22;69649;53.712;9.680;2023-05-20T13:57:57;17.50;55.10
7876;DHT22;69649;53.712;9.680;2023-05-20T14:00:23;17.20;55.50
7876;DHT22;69649;53.712;9.680;2023-05-20T14:02:49;17.10;55.90
7876;DHT22;69649;53.712;9.680;2023-05-20T14:05:15;17.30;56.50
7876;DHT22;69649;53.712;9.680;2023-05-20T14:07:41;17.50;55.80
7876;DHT22;69649;53.712;9.680;2023-05-20T14:10:07;17.60;55.80
7876;DHT22;69649;53.712;9.680;2023-05-20T14:12:33;17.50;55.70
7876;DHT22;69649;53.712;9.680;2023-05-20T14:14:59;17.50;55.70
7876;DHT22;69649;53.712;9.680;2023-05-20T14:17:25;17.50;55.00
7876;DHT22;69649;53.712;9.680;2023-05-20T14:19:50;17.80;55.20
7876;DHT22;69649;53.712;9.680;2023-05-20T14:22:16;17.70;54.80
7876;DHT22;69649;53.712;9.680;2023-05-20T14:24:42;17.60;54.70
7876;DHT22;69649;53.712;9.680;2023-05-20T14:27:28;17.50;55.00
7876;DHT22;69649;53.712;9.680;2023-05-20T14:29:54;17.20;55.50
7876;DHT22;69649;53.712;9.680;2023-05-20T14:32:19;17.00;56.20
7876;DHT22;69649;53.712;9.680;2023-05-20T14:34:45;17.00;56.00
7876;DHT22;69649;53.712;9.680;2023-05-20T14:37:11;17.00;56.50
7876;DHT22;69649;53.712;9.680;2023-05-20T14:39:37;17.20;56.90
7876;DHT22;69649;53.712;9.680;2023-05-20T14:42:05;17.40;56.30
7876;DHT22;69649;53.712;9.680;2023-05-20T14:44:31;17.50;56.60
7876;DHT22;69649;53.712;9.680;2023-05-20T14:46:57;17.50;55.40
7876;DHT22;69649;53.712;9.680;2023-05-20T14:49:22;17.50;56.00
7876;DHT22;69649;53.712;9.680;2023-05-20T14:51:48;17.50;56.20
7876;DHT22;69649;53.712;9.680;2023-05-20T14:54:14;17.50;56.10
7876;DHT22;69649;53.712;9.680;2023-05-20T14:56:41;17.50;56.30
7876;DHT22;69649;53.712;9.680;2023-05-20T14:59:07;17.60;56.10
7876;DHT22;69649;53.712;9.680;2023-05-20T15:01:34;17.50;55.80
7876;DHT22;69649;53.712;9.680;2023-05-20T15:04:00;17.50;56.10
7876;DHT22;69649;53.712;9.680;2023-05-20T15:06:26;17.50;55.90
7876;DHT22;69649;53.712;9.680;2023-05-20T15:08:52;17.20;56.60
7876;DHT22;69649;53.712;9.680;2023-05-20T15:11:18;17.00;56.50
7876;DHT22;69649;53.712;9.680;2023-05-20T15:13:43;17.40;56.60
7876;DHT22;69649;53.712;9.680;2023-05-20T15:16:11;17.60;55.90
7876;DHT22;69649;53.712;9.680;2023-05-20T15:18:37;17.50;56.20
7876;DHT22;69649;53.712;9.680;2023-05-20T15:21:03;17.50;56.10
7876;DHT22;69649;53.712;9.680;2023-05-20T15:23:29;17.40;56.30
7876;DHT22;69649;53.712;9.680;2023-05-20T15:25:55;17.40;56.40
7876;DHT22;69649;53.712;9.680;2023-05-20T15:28:23;17.20;56.60
7876;DHT22;69649;53.712;9.680;2023-05-20T15:30:54;17.00;56.70
7876;DHT22;69649;53.712;9.680;2023-05-20T15:33:20;17.00;56.70
7876;DHT22;69649;53.712;9.680;2023-05-20T15:35:46;17.00;56.90
7876;DHT22;69649;53.712;9.680;2023-05-20T15:38:13;17.20;57.00
7876;DHT22;69649;53.712;9.680;2023-05-20T15:40:39;17.20;56.80
7876;DHT22;69649;53.712;9.680;2023-05-20T15:43:06;17.20;56.50
7876;DHT22;69649;53.712;9.680;2023-05-20T15:45:32;17.20;56.10
7876;DHT22;69649;53.712;9.680;2023-05-20T15:47:58;17.20;56.50
7876;DHT22;69649;53.712;9.680;2023-05-20T15:50:24;17.10;57.10
7876;DHT22;69649;53.712;9.680;2023-05-20T15:52:51;17.10;57.00
7876;DHT22;69649;53.712;9.680;2023-05-20T15:55:17;17.00;56.70
7876;DHT22;69649;53.712;9.680;2023-05-20T15:57:43;17.00;56.70